createdAt,value
2023-02-18T00:01:12.651Z,38.90
2023-02-18T00:03:41.478Z,34.17
2023-02-18T00:06:16.529Z,39.92
2023-02-18T00:08:45.180Z,38.38
2023-02-18T00:11:12.953Z,38.97
2023-02-18T00:13:40.123Z,39.67
2023-02-18T00:16:12.466Z,46.38
2023-02-18T00:18:40.408Z,46.78
2023-02-18T00:21:08.284Z,37.65
2023-02-18T00:23:36.043Z,40.22
2023-02-18T00:26:13.280Z,54.22
2023-02-18T00:28:40.994Z,44.75
2023-02-18T00:31:10.748Z,39.00
2023-02-18T00:33:37.902Z,55.58
2023-02-18T00:36:07.981Z,48.60
2023-02-18T00:38:35.250Z,49.33
2023-02-18T00:41:03.085Z,44.83
2023-02-18T00:43:30.366Z,55.15
2023-02-18T00:45:57.502Z,45.10
2023-02-18T00:48:25.447Z,54.25
2023-02-18T00:50:52.466Z,58.92
2023-02-18T00:53:19.534Z,58.40
2023-02-18T00:55:49.766Z,48.05
2023-02-18T00:58:16.855Z,47.78
2023-02-18T01:00:44.002Z,58.13
2023-02-18T01:03:11.493Z,56.92
2023-02-18T01:05:40.056Z,66.45
2023-02-18T01:08:09.213Z,69.50
2023-02-18T01:10:40.269Z,53.53
2023-02-18T01:13:07.783Z,57.17
2023-02-18T01:15:34.863Z,80.07
2023-02-18T01:18:01.901Z,67.00
2023-02-18T01:20:29.281Z,58.90
2023-02-18T01:22:56.556Z,56.40
2023-02-18T01:25:24.449Z,55.55
2023-02-18T01:27:51.481Z,56.75
2023-02-18T01:30:19.471Z,65.65
2023-02-18T01:32:46.732Z,55.47
2023-02-18T01:35:16.838Z,65.20
2023-02-18T01:37:43.967Z,55.67
2023-02-18T01:40:13.639Z,63.28
2023-02-18T01:42:40.945Z,68.25
2023-02-18T01:45:35.954Z,53.40
2023-02-18T01:48:34.115Z,49.55
2023-02-18T01:51:07.289Z,54.72
2023-02-18T01:53:57.389Z,69.18
2023-02-18T01:56:48.574Z,58.63
2023-02-18T01:59:28.129Z,47.67
2023-02-18T02:01:56.753Z,50.45
2023-02-18T02:04:24.252Z,48.38
2023-02-18T02:06:52.544Z,46.15
2023-02-18T02:09:21.967Z,51.55
2023-02-18T02:12:07.940Z,50.63
2023-02-18T02:14:56.663Z,57.72
2023-02-18T02:17:45.161Z,53.00
2023-02-18T02:20:17.751Z,47.83
2023-02-18T02:23:07.670Z,53.65
2023-02-18T02:26:25.108Z,57.75
2023-02-18T02:29:16.857Z,64.35
2023-02-18T02:31:53.833Z,50.95
2023-02-18T02:34:51.269Z,47.08
2023-02-18T02:37:49.188Z,61.42
2023-02-18T02:40:27.788Z,56.72
2023-02-18T02:43:02.922Z,62.38
2023-02-18T02:45:49.557Z,59.30
2023-02-18T02:48:26.450Z,72.35
2023-02-18T02:51:28.192Z,51.45
2023-02-18T02:54:08.432Z,70.28
2023-02-18T02:56:35.516Z,79.03
2023-02-18T02:59:07.632Z,64.03
2023-02-18T03:01:57.670Z,53.60
2023-02-18T03:04:54.687Z,62.97
2023-02-18T03:08:08.865Z,79.32
2023-02-18T03:10:47.884Z,69.63
2023-02-18T03:13:44.201Z,66.05
2023-02-18T03:16:25.475Z,73.88
2023-02-18T03:19:01.447Z,62.05
2023-02-18T03:22:06.587Z,70.07
2023-02-18T03:24:40.514Z,69.00
2023-02-18T03:27:31.694Z,64.70
2023-02-18T03:30:11.031Z,57.45
2023-02-18T03:32:38.100Z,66.15
2023-02-18T03:35:11.322Z,60.55
2023-02-18T03:37:43.133Z,59.15
2023-02-18T03:40:11.522Z,59.35
2023-02-18T03:42:38.581Z,61.97
2023-02-18T03:45:06.076Z,56.45
2023-02-18T03:47:33.286Z,58.20
2023-02-18T03:50:00.335Z,49.13
2023-02-18T03:52:27.824Z,50.95
2023-02-18T03:54:55.079Z,46.03
2023-02-18T03:57:22.197Z,38.88
2023-02-18T03:59:49.276Z,41.97
2023-02-18T04:02:16.296Z,34.42
2023-02-18T04:04:43.364Z,37.35
2023-02-18T04:07:10.454Z,34.30
2023-02-18T04:09:37.528Z,30.52
2023-02-18T04:12:04.685Z,28.65
2023-02-18T04:14:31.766Z,30.88
2023-02-18T04:16:58.822Z,19.75
2023-02-18T04:19:25.983Z,16.05
2023-02-18T04:21:53.027Z,20.15
2023-02-18T04:24:20.425Z,12.38
2023-02-18T04:26:47.517Z,16.95
2023-02-18T04:29:14.584Z,10.40
2023-02-18T04:31:41.725Z,10.05
2023-02-18T04:34:08.815Z,11.07
2023-02-18T04:36:35.828Z,9.35
2023-02-18T04:39:03.472Z,15.05
2023-02-18T04:41:30.674Z,9.40
2023-02-18T04:43:59.580Z,13.52
2023-02-18T04:46:26.784Z,10.52
2023-02-18T04:48:53.871Z,14.95
2023-02-18T04:51:21.289Z,14.85
2023-02-18T04:53:48.375Z,12.55
2023-02-18T04:56:15.477Z,17.10
2023-02-18T04:58:42.511Z,15.23
2023-02-18T05:01:10.682Z,15.82
2023-02-18T05:03:37.726Z,17.20
2023-02-18T05:06:05.020Z,16.30
2023-02-18T05:08:32.284Z,14.23
2023-02-18T05:10:59.489Z,11.02
2023-02-18T05:13:26.581Z,14.15
2023-02-18T05:15:54.949Z,14.77
2023-02-18T05:18:22.076Z,13.25
2023-02-18T05:20:49.113Z,18.63
2023-02-18T05:23:16.241Z,17.15
2023-02-18T05:25:43.334Z,15.98
2023-02-18T05:28:10.332Z,14.70
2023-02-18T05:30:37.453Z,16.63
2023-02-18T05:33:04.577Z,18.13
2023-02-18T05:35:31.770Z,16.98
2023-02-18T05:37:58.803Z,16.17
2023-02-18T05:40:28.658Z,15.32
2023-02-18T05:42:58.566Z,12.05
2023-02-18T05:45:26.166Z,20.02
2023-02-18T05:47:54.904Z,16.17
2023-02-18T05:50:21.967Z,19.45
2023-02-18T05:52:49.192Z,19.58
2023-02-18T05:55:16.324Z,18.67
2023-02-18T05:57:43.348Z,23.73
2023-02-18T06:00:11.127Z,25.25
2023-02-18T06:02:38.227Z,29.95
2023-02-18T06:05:05.902Z,27.15
2023-02-18T06:07:32.945Z,27.60
2023-02-18T06:10:00.161Z,29.27
2023-02-18T06:12:27.267Z,31.58
2023-02-18T06:14:56.608Z,31.60
2023-02-18T06:17:26.018Z,32.20
2023-02-18T06:19:53.080Z,33.05
2023-02-18T06:22:20.172Z,25.33
2023-02-18T06:24:47.312Z,27.65
2023-02-18T06:27:14.400Z,29.92
2023-02-18T06:29:41.571Z,30.90
2023-02-18T06:32:08.718Z,31.30
2023-02-18T06:34:35.818Z,28.33
2023-02-18T06:37:02.868Z,30.27
2023-02-18T06:39:29.975Z,32.05
2023-02-18T06:41:57.057Z,21.67
2023-02-18T06:44:24.881Z,20.63
2023-02-18T06:46:51.935Z,21.58
2023-02-18T06:49:19.022Z,25.63
2023-02-18T06:51:46.028Z,27.50
2023-02-18T06:54:13.152Z,24.83
2023-02-18T06:56:40.149Z,25.95
2023-02-18T06:59:08.281Z,21.85
2023-02-18T07:01:35.353Z,19.73
2023-02-18T07:04:02.940Z,15.45
2023-02-18T07:06:30.044Z,18.13
2023-02-18T07:08:57.298Z,18.45
2023-02-18T07:11:26.703Z,18.50
2023-02-18T07:13:55.198Z,21.15
2023-02-18T07:16:22.315Z,22.88
2023-02-18T07:18:49.495Z,25.05
2023-02-18T07:21:16.604Z,27.70
2023-02-18T07:23:43.673Z,28.23
2023-02-18T07:26:13.074Z,27.02
2023-02-18T07:28:41.276Z,24.58
2023-02-18T07:31:08.730Z,28.73
2023-02-18T07:33:35.884Z,23.15
2023-02-18T07:36:03.213Z,25.00
2023-02-18T07:38:30.460Z,18.10
2023-02-18T07:40:58.721Z,29.67
2023-02-18T07:43:26.532Z,25.02
2023-02-18T07:45:53.555Z,20.05
2023-02-18T07:48:20.701Z,26.27
2023-02-18T07:50:47.754Z,31.55
2023-02-18T07:53:16.306Z,17.90
2023-02-18T07:55:49.686Z,16.63
2023-02-18T07:58:28.506Z,17.23
2023-02-18T08:00:57.216Z,19.15
2023-02-18T08:03:28.897Z,26.02
2023-02-18T08:05:57.094Z,18.42
2023-02-18T08:08:27.957Z,23.58
2023-02-18T08:10:59.666Z,18.33
2023-02-18T08:13:28.495Z,15.90
2023-02-18T08:15:57.372Z,21.40
2023-02-18T08:18:26.997Z,16.80
2023-02-18T08:20:56.941Z,16.60
2023-02-18T08:23:26.495Z,21.42
2023-02-18T08:25:55.667Z,20.52
2023-02-18T08:28:24.983Z,22.08
2023-02-18T08:30:55.982Z,10.45
2023-02-18T08:33:24.859Z,23.45
2023-02-18T08:35:54.908Z,10.77
2023-02-18T08:38:24.835Z,12.18
2023-02-18T08:41:02.471Z,18.05
2023-02-18T08:43:29.570Z,16.42
2023-02-18T08:45:58.517Z,15.75
2023-02-18T08:48:26.974Z,11.30
2023-02-18T08:50:55.053Z,9.02
2023-02-18T08:53:22.337Z,18.88
2023-02-18T08:55:49.538Z,20.92
2023-02-18T08:58:17.312Z,17.60
2023-02-18T09:00:46.234Z,12.95
2023-02-18T09:03:16.159Z,17.23
2023-02-18T09:05:43.225Z,13.73
2023-02-18T09:08:10.361Z,21.63
2023-02-18T09:10:39.374Z,14.55
2023-02-18T09:13:06.531Z,12.05
2023-02-18T09:15:33.628Z,17.20
2023-02-18T09:18:00.725Z,21.92
2023-02-18T09:20:28.450Z,14.38
2023-02-18T09:22:57.598Z,18.45
2023-02-18T09:25:26.245Z,14.57
2023-02-18T09:27:56.679Z,9.98
2023-02-18T09:30:26.064Z,10.60
2023-02-18T09:32:53.083Z,16.60
2023-02-18T09:35:20.438Z,20.85
2023-02-18T09:37:47.536Z,12.38
2023-02-18T09:40:32.807Z,17.35
2023-02-18T09:43:00.805Z,13.00
2023-02-18T09:45:28.018Z,11.65
2023-02-18T09:47:56.950Z,11.95
2023-02-18T09:50:28.938Z,18.63
2023-02-18T09:52:59.615Z,15.35
2023-02-18T09:55:39.712Z,11.15
2023-02-18T09:58:19.968Z,16.42
2023-02-18T10:00:58.635Z,15.32
2023-02-18T10:03:27.039Z,11.77
2023-02-18T10:06:02.898Z,7.78
2023-02-18T10:08:40.290Z,12.40
2023-02-18T10:11:16.530Z,11.13
2023-02-18T10:13:44.936Z,6.85
2023-02-18T10:16:17.872Z,16.15
2023-02-18T10:18:49.233Z,16.63
2023-02-18T10:21:31.515Z,16.35
2023-02-18T10:24:06.979Z,11.35
2023-02-18T10:26:37.483Z,13.13
2023-02-18T10:29:13.669Z,16.08
2023-02-18T10:31:56.843Z,14.60
2023-02-18T10:34:28.589Z,10.48
2023-02-18T10:37:07.600Z,6.90
2023-02-18T10:40:19.875Z,12.05
2023-02-18T10:43:06.752Z,9.35
2023-02-18T10:45:44.547Z,10.88
2023-02-18T10:48:26.219Z,11.25
2023-02-18T10:50:54.488Z,13.55
2023-02-18T10:53:40.402Z,15.82
2023-02-18T10:56:08.807Z,12.23
2023-02-18T10:58:37.078Z,10.38
2023-02-18T11:01:08.854Z,13.55
2023-02-18T11:03:41.411Z,12.00
2023-02-18T11:06:21.917Z,14.45
2023-02-18T11:08:50.117Z,14.82
2023-02-18T11:11:31.633Z,8.85
2023-02-18T11:14:01.540Z,7.65
2023-02-18T11:16:40.408Z,9.23
2023-02-18T11:19:35.131Z,8.45
2023-02-18T11:22:18.948Z,10.45
2023-02-18T11:24:50.351Z,13.38
2023-02-18T11:27:39.626Z,11.30
2023-02-18T11:30:18.089Z,14.60
2023-02-18T11:32:48.139Z,13.55
2023-02-18T11:35:26.100Z,11.93
2023-02-18T11:37:54.999Z,8.70
2023-02-18T11:40:34.428Z,7.68
2023-02-18T11:43:13.458Z,9.25
2023-02-18T11:45:41.306Z,7.47
2023-02-18T11:48:16.865Z,8.88
2023-02-18T11:50:45.420Z,7.63
2023-02-18T11:53:31.209Z,4.57
2023-02-18T11:56:01.425Z,7.72
2023-02-18T11:58:38.332Z,14.32
2023-02-18T12:01:12.912Z,7.50
2023-02-18T12:03:48.352Z,8.13
2023-02-18T12:06:30.184Z,8.07
2023-02-18T12:09:03.891Z,6.45
2023-02-18T12:11:36.234Z,8.68
2023-02-18T12:14:03.565Z,7.63
2023-02-18T12:16:36.480Z,5.18
2023-02-18T12:19:42.396Z,8.57
2023-02-18T12:22:32.018Z,7.28
2023-02-18T12:25:26.386Z,5.57
2023-02-18T12:30:40.298Z,6.82
2023-02-18T12:33:26.064Z,7.57
2023-02-18T12:36:13.540Z,5.00
2023-02-18T12:39:03.715Z,8.70
2023-02-18T12:41:52.120Z,10.98
2023-02-18T12:44:36.980Z,9.35
2023-02-18T12:47:12.922Z,6.35
2023-02-18T12:49:49.384Z,5.78
2023-02-18T12:52:53.331Z,6.20
2023-02-18T12:55:44.806Z,6.13
2023-02-18T12:58:34.671Z,5.68
2023-02-18T13:01:04.510Z,11.45
2023-02-18T13:04:08.849Z,5.45
2023-02-18T13:06:56.762Z,6.15
2023-02-18T13:09:48.492Z,8.32
2023-02-18T13:12:23.406Z,6.97
2023-02-18T13:15:20.849Z,7.68
2023-02-18T13:17:49.870Z,5.65
2023-02-18T13:20:41.502Z,11.55
2023-02-18T13:23:17.616Z,6.30
2023-02-18T13:25:46.719Z,6.53
2023-02-18T13:28:48.927Z,5.20
2023-02-18T13:31:35.029Z,4.53
2023-02-18T13:34:27.088Z,6.57
2023-02-18T13:37:04.140Z,8.55
2023-02-18T13:39:32.266Z,7.32
2023-02-18T13:42:17.362Z,4.72
2023-02-18T13:44:56.614Z,4.28
2023-02-18T13:47:42.912Z,3.00
2023-02-18T13:50:29.136Z,7.80
2023-02-18T13:53:21.423Z,9.07
2023-02-18T13:55:56.274Z,6.38
2023-02-18T13:58:35.943Z,8.48
2023-02-18T14:01:12.228Z,3.28
2023-02-18T14:03:45.112Z,7.90
2023-02-18T14:06:25.990Z,6.30
2023-02-18T14:09:23.694Z,5.97
2023-02-18T14:12:26.066Z,6.18
2023-02-18T14:14:56.084Z,5.60
2023-02-18T14:17:23.052Z,4.72
2023-02-18T14:20:02.604Z,2.85
2023-02-18T14:22:29.632Z,3.55
2023-02-18T14:25:02.521Z,5.88
2023-02-18T14:27:29.605Z,5.83
2023-02-18T14:30:04.831Z,7.13
2023-02-18T14:32:32.012Z,7.13
2023-02-18T14:35:26.975Z,3.08
2023-02-18T14:38:12.693Z,7.65
2023-02-18T14:41:09.591Z,5.18
2023-02-18T14:43:49.278Z,5.72
2023-02-18T14:46:37.663Z,5.80
2023-02-18T14:49:35.633Z,8.00
2023-02-18T14:52:05.159Z,8.95
2023-02-18T14:54:32.468Z,4.78
2023-02-18T14:57:04.372Z,4.57
2023-02-18T14:59:36.170Z,5.68
2023-02-18T15:02:03.302Z,3.85
2023-02-18T15:04:30.382Z,7.25
2023-02-18T15:07:05.413Z,7.45
2023-02-18T15:09:32.561Z,4.47
2023-02-18T15:12:05.673Z,7.20
2023-02-18T15:14:40.036Z,8.75
2023-02-18T15:17:13.582Z,6.28
2023-02-18T15:19:44.864Z,7.68
2023-02-18T15:22:18.631Z,4.90
2023-02-18T15:27:17.934Z,3.58
2023-02-18T15:29:49.650Z,5.22
2023-02-18T15:32:18.602Z,5.18
2023-02-18T15:34:49.674Z,9.77
2023-02-18T15:37:16.734Z,7.95
2023-02-18T15:39:45.385Z,12.45
2023-02-18T15:42:31.647Z,3.78
2023-02-18T15:45:26.591Z,3.80
2023-02-18T15:47:57.331Z,7.47
2023-02-18T15:50:28.242Z,7.30
2023-02-18T15:52:59.943Z,9.13
2023-02-18T15:55:38.371Z,4.15
2023-02-18T15:58:12.413Z,7.28
2023-02-18T16:00:47.231Z,8.27
2023-02-18T16:03:26.047Z,7.38
2023-02-18T16:06:09.531Z,6.13
2023-02-18T16:08:36.991Z,6.90
2023-02-18T16:11:11.751Z,6.43
2023-02-18T16:13:47.472Z,7.00
2023-02-18T16:16:26.189Z,6.68
2023-02-18T16:18:55.513Z,6.50
2023-02-18T16:21:28.475Z,6.55
2023-02-18T16:23:59.884Z,9.05
2023-02-18T16:26:41.073Z,6.90
2023-02-18T16:29:14.406Z,8.05
2023-02-18T16:31:42.715Z,8.07
2023-02-18T16:34:09.800Z,6.22
2023-02-18T16:36:37.043Z,13.50
2023-02-18T16:39:04.251Z,7.82
2023-02-18T16:41:31.258Z,10.20
2023-02-18T16:43:58.570Z,5.70
2023-02-18T16:46:26.558Z,12.20
2023-02-18T16:48:56.653Z,6.57
2023-02-18T16:51:23.657Z,11.13
2023-02-18T16:53:52.188Z,10.30
2023-02-18T16:56:26.577Z,8.25
2023-02-18T16:58:54.879Z,11.15
2023-02-18T17:01:41.571Z,14.45
2023-02-18T17:04:12.356Z,9.00
2023-02-18T17:06:39.447Z,10.02
2023-02-18T17:09:16.629Z,14.27
2023-02-18T17:11:48.095Z,11.10
2023-02-18T17:14:17.939Z,6.50
2023-02-18T17:16:46.293Z,9.23
2023-02-18T17:19:13.597Z,10.82
2023-02-18T17:21:40.958Z,11.57
2023-02-18T17:24:12.762Z,8.60
2023-02-18T17:26:40.127Z,8.85
2023-02-18T17:29:07.206Z,18.83
2023-02-18T17:31:37.839Z,8.77
2023-02-18T17:34:07.906Z,7.68
2023-02-18T17:36:35.357Z,13.13
2023-02-18T17:39:11.874Z,13.43
2023-02-18T17:41:38.997Z,10.98
2023-02-18T17:44:15.469Z,14.35
2023-02-18T17:46:42.536Z,14.52
2023-02-18T17:49:09.916Z,15.43
2023-02-18T17:51:38.317Z,13.85
2023-02-18T17:54:19.798Z,14.90
2023-02-18T17:56:47.006Z,20.58
2023-02-18T17:59:14.173Z,21.27
2023-02-18T18:01:42.392Z,16.92
2023-02-18T18:04:18.250Z,20.27
2023-02-18T18:06:49.811Z,18.88
2023-02-18T18:09:16.890Z,19.23
2023-02-18T18:11:43.917Z,14.73
2023-02-18T18:14:13.662Z,17.83
2023-02-18T18:16:40.710Z,22.98
2023-02-18T18:19:07.720Z,19.63
2023-02-18T18:21:36.607Z,18.13
2023-02-18T18:24:04.190Z,19.45
2023-02-18T18:26:31.335Z,30.42
2023-02-18T18:28:58.424Z,16.92
2023-02-18T18:31:26.589Z,15.35
2023-02-18T18:33:56.126Z,21.77
2023-02-18T18:36:25.314Z,23.50
2023-02-18T18:38:52.666Z,15.77
2023-02-18T18:41:22.349Z,23.15
2023-02-18T18:43:49.774Z,24.35
2023-02-18T18:46:17.714Z,18.42
2023-02-18T18:48:44.968Z,28.42
2023-02-18T18:51:16.363Z,20.33
2023-02-18T18:53:43.764Z,25.27
2023-02-18T18:56:11.885Z,26.67
2023-02-18T18:58:39.036Z,29.90
2023-02-18T19:01:14.282Z,29.02
2023-02-18T19:03:42.286Z,34.17
2023-02-18T19:06:13.778Z,33.92
2023-02-18T19:08:40.883Z,28.27
2023-02-18T19:11:08.312Z,40.38
2023-02-18T19:13:36.214Z,33.72
2023-02-18T19:16:10.950Z,38.05
2023-02-18T19:18:38.244Z,38.85
2023-02-18T19:21:05.545Z,33.88
2023-02-18T19:23:33.873Z,34.78
2023-02-18T19:26:01.446Z,29.63
2023-02-18T19:28:28.654Z,44.47
2023-02-18T19:30:56.757Z,35.70
2023-02-18T19:33:24.285Z,49.08
2023-02-18T19:35:52.264Z,31.85
2023-02-18T19:38:19.428Z,35.95
2023-02-18T19:40:47.210Z,41.03
2023-02-18T19:43:14.308Z,40.47
2023-02-18T19:45:43.654Z,41.15
2023-02-18T19:48:12.370Z,38.72
2023-02-18T19:50:41.659Z,42.63
2023-02-18T19:53:11.248Z,38.95
2023-02-18T19:55:38.873Z,48.97
2023-02-18T19:58:06.356Z,43.65
2023-02-18T20:00:33.587Z,34.78
2023-02-18T20:03:00.796Z,43.05
2023-02-18T20:05:27.926Z,38.60
2023-02-18T20:07:58.178Z,41.33
2023-02-18T20:10:26.306Z,44.50
2023-02-18T20:12:54.981Z,38.10
2023-02-18T20:15:22.142Z,58.00
2023-02-18T20:17:49.998Z,48.50
2023-02-18T20:20:17.777Z,38.42
2023-02-18T20:22:45.157Z,41.00
2023-02-18T20:25:12.366Z,44.28
2023-02-18T20:27:45.251Z,46.38
2023-02-18T20:30:21.951Z,49.97
2023-02-18T20:32:49.029Z,37.25
2023-02-18T20:35:16.166Z,42.80
2023-02-18T20:37:43.253Z,38.95
2023-02-18T20:40:10.446Z,39.47
2023-02-18T20:42:38.864Z,31.92
2023-02-18T20:45:06.146Z,36.83
2023-02-18T20:47:33.184Z,31.80
2023-02-18T20:50:00.290Z,29.83
2023-02-18T20:52:27.354Z,39.78
2023-02-18T20:54:54.813Z,28.15
2023-02-18T20:57:21.925Z,34.28
2023-02-18T20:59:49.023Z,27.25
2023-02-18T21:02:16.724Z,25.27
2023-02-18T21:04:45.020Z,26.10
2023-02-18T21:07:12.122Z,26.75
2023-02-18T21:09:39.233Z,19.88
2023-02-18T21:12:06.302Z,23.85
2023-02-18T21:14:33.448Z,22.70
2023-02-18T21:17:00.508Z,18.70
2023-02-18T21:19:27.612Z,18.23
2023-02-18T21:21:56.972Z,26.30
2023-02-18T21:24:25.103Z,15.98
2023-02-18T21:26:55.117Z,15.80
2023-02-18T21:29:22.190Z,15.80
2023-02-18T21:31:49.471Z,18.27
2023-02-18T21:34:16.690Z,28.35
2023-02-18T21:36:43.904Z,31.40
2023-02-18T21:39:11.313Z,28.52
2023-02-18T21:41:40.666Z,33.95
2023-02-18T21:44:09.144Z,37.35
2023-02-18T21:46:36.791Z,46.10
2023-02-18T21:49:12.237Z,42.15
2023-02-18T21:51:57.011Z,40.63
2023-02-18T21:54:26.383Z,43.58
2023-02-18T21:56:56.271Z,47.15
2023-02-18T21:59:26.821Z,46.78
2023-02-18T22:01:55.314Z,45.17
2023-02-18T22:04:22.547Z,41.67
2023-02-18T22:06:49.595Z,51.05
2023-02-18T22:09:18.212Z,41.47
2023-02-18T22:11:45.307Z,47.80
2023-02-18T22:14:13.523Z,38.38
2023-02-18T22:16:41.244Z,34.95
2023-02-18T22:19:09.955Z,47.25
2023-02-18T22:21:37.061Z,55.13
2023-02-18T22:24:06.167Z,48.28
2023-02-18T22:26:33.943Z,46.75
2023-02-18T22:29:01.555Z,37.40
2023-02-18T22:31:29.980Z,27.00
2023-02-18T22:33:58.487Z,46.03
2023-02-18T22:36:29.358Z,40.63
2023-02-18T22:38:57.426Z,42.92
2023-02-18T22:41:26.800Z,37.60
2023-02-18T22:43:58.821Z,32.13
2023-02-18T22:46:27.573Z,30.80
2023-02-18T22:48:58.129Z,33.17
2023-02-18T22:51:29.275Z,28.52
2023-02-18T22:53:57.875Z,35.83
2023-02-18T22:56:29.290Z,33.97
2023-02-18T22:58:57.972Z,33.95
2023-02-18T23:01:29.240Z,33.05
2023-02-18T23:03:58.416Z,46.15
2023-02-18T23:06:26.338Z,32.72
2023-02-18T23:08:55.019Z,29.15
2023-02-18T23:11:22.326Z,32.20
2023-02-18T23:14:09.658Z,32.05
2023-02-18T23:16:57.346Z,35.00
2023-02-18T23:19:27.505Z,32.97
2023-02-18T23:21:56.271Z,30.98
2023-02-18T23:24:24.007Z,25.23
2023-02-18T23:26:52.424Z,31.42
2023-02-18T23:29:19.604Z,36.72
2023-02-18T23:31:46.825Z,30.65
2023-02-18T23:34:15.312Z,22.85
2023-02-18T23:36:43.317Z,29.08
2023-02-18T23:39:12.053Z,43.55
2023-02-18T23:41:39.592Z,26.73
2023-02-18T23:44:10.157Z,24.40
2023-02-18T23:46:38.030Z,35.25
2023-02-18T23:49:05.133Z,26.70
2023-02-18T23:51:32.517Z,24.35
2023-02-18T23:54:02.644Z,32.00
2023-02-18T23:56:29.897Z,22.48
2023-02-18T23:59:00.565Z,23.65
